sensor_id;sensor_type;location;lat;lon;timestamp;pressure;altitude;pressure_sealevel;temperature;humidity
24892;BME280;12954;50.688;10.908;2023-04-09T00:00:47;96382.34;;;4.96;67.81
24892;BME280;12954;50.688;10.908;2023-04-09T00:03:15;96389.19;;;4.92;68.35
24892;BME280;12954;50.688;10.908;2023-04-09T00:05:44;96389.97;;;4.92;68.48
24892;BME280;12954;50.688;10.908;2023-04-09T00:08:12;96386.28;;;4.93;68.40
24892;BME280;12954;50.688;10.908;2023-04-09T00:10:41;96352.94;;;4.78;68.24
24892;BME280;12954;50.688;10.908;2023-04-09T00:13:09;96380.03;;;4.99;67.91
24892;BME280;12954;50.688;10.908;2023-04-09T00:15:38;96367.50;;;4.82;67.91
24892;BME280;12954;50.688;10.908;2023-04-09T00:18:08;96385.47;;;4.93;67.91
24892;BME280;12954;50.688;10.908;2023-04-09T00:20:36;96310.38;;;4.47;67.97
24892;BME280;12954;50.688;10.908;2023-04-09T00:23:05;96363.06;;;4.76;68.39
24892;BME280;12954;50.688;10.908;2023-04-09T00:25:33;96380.81;;;4.88;68.42
24892;BME280;12954;50.688;10.908;2023-04-09T00:28:02;96363.56;;;4.84;68.54
24892;BME280;12954;50.688;10.908;2023-04-09T00:30:30;96375.13;;;4.96;68.50
24892;BME280;12954;50.688;10.908;2023-04-09T00:32:58;96331.44;;;4.73;68.32
24892;BME280;12954;50.688;10.908;2023-04-09T00:35:28;96383.28;;;5.01;68.08
24892;BME280;12954;50.688;10.908;2023-04-09T00:37:57;96373.06;;;4.98;68.21
24892;BME280;12954;50.688;10.908;2023-04-09T00:40:26;96380.41;;;5.03;67.68
24892;BME280;12954;50.688;10.908;2023-04-09T00:42:54;96382.84;;;5.05;67.99
24892;BME280;12954;50.688;10.908;2023-04-09T00:45:23;96377.88;;;5.08;67.22
24892;BME280;12954;50.688;10.908;2023-04-09T00:47:52;96378.91;;;5.07;67.17
24892;BME280;12954;50.688;10.908;2023-04-09T00:50:20;96377.59;;;4.98;67.46
24892;BME280;12954;50.688;10.908;2023-04-09T00:52:50;96375.59;;;4.93;67.61
24892;BME280;12954;50.688;10.908;2023-04-09T00:55:20;96379.91;;;4.94;67.39
24892;BME280;12954;50.688;10.908;2023-04-09T00:57:48;96375.22;;;4.90;67.47
24892;BME280;12954;50.688;10.908;2023-04-09T01:00:16;96378.94;;;4.89;67.90
24892;BME280;12954;50.688;10.908;2023-04-09T01:02:45;96382.66;;;4.88;67.67
24892;BME280;12954;50.688;10.908;2023-04-09T01:05:14;96381.91;;;4.81;67.88
24892;BME280;12954;50.688;10.908;2023-04-09T01:07:55;96384.00;;;4.79;67.76
24892;BME280;12954;50.688;10.908;2023-04-09T01:10:33;96381.31;;;4.79;68.21
24892;BME280;12954;50.688;10.908;2023-04-09T01:13:07;96385.19;;;4.83;68.21
24892;BME280;12954;50.688;10.908;2023-04-09T01:15:43;96384.56;;;4.81;67.95
24892;BME280;12954;50.688;10.908;2023-04-09T01:18:20;96385.19;;;4.83;68.04
24892;BME280;12954;50.688;10.908;2023-04-09T01:20:55;96237.19;;;3.93;68.04
24892;BME280;12954;50.688;10.908;2023-04-09T01:23:36;96352.09;;;4.66;68.00
24892;BME280;12954;50.688;10.908;2023-04-09T01:26:17;96360.25;;;4.71;68.01
24892;BME280;12954;50.688;10.908;2023-04-09T01:28:52;96387.41;;;4.86;67.84
24892;BME280;12954;50.688;10.908;2023-04-09T01:31:27;96395.00;;;4.89;67.74
24892;BME280;12954;50.688;10.908;2023-04-09T01:33:56;96361.97;;;4.65;67.82
24892;BME280;12954;50.688;10.908;2023-04-09T01:36:28;96357.72;;;4.58;67.48
24892;BME280;12954;50.688;10.908;2023-04-09T01:38:59;96400.91;;;4.73;67.37
24892;BME280;12954;50.688;10.908;2023-04-09T01:41:30;96385.31;;;4.70;68.02
24892;BME280;12954;50.688;10.908;2023-04-09T01:44:02;96362.72;;;4.54;67.80
24892;BME280;12954;50.688;10.908;2023-04-09T01:46:32;96338.41;;;4.37;68.02
24892;BME280;12954;50.688;10.908;2023-04-09T01:49:02;96371.38;;;4.68;67.62
24892;BME280;12954;50.688;10.908;2023-04-09T01:51:32;96385.78;;;4.67;68.11
24892;BME280;12954;50.688;10.908;2023-04-09T01:54:00;96385.84;;;4.60;68.37
24892;BME280;12954;50.688;10.908;2023-04-09T01:56:39;96384.59;;;4.63;68.38
24892;BME280;12954;50.688;10.908;2023-04-09T01:59:09;96380.44;;;4.67;68.60
24892;BME280;12954;50.688;10.908;2023-04-09T02:01:42;96383.84;;;4.74;68.15
24892;BME280;12954;50.688;10.908;2023-04-09T02:04:17;96383.41;;;4.77;68.20
24892;BME280;12954;50.688;10.908;2023-04-09T02:06:52;96370.13;;;4.70;67.96
24892;BME280;12954;50.688;10.908;2023-04-09T02:09:23;96353.13;;;4.65;68.19
24892;BME280;12954;50.688;10.908;2023-04-09T02:11:54;96384.75;;;4.86;67.84
24892;BME280;12954;50.688;10.908;2023-04-09T02:14:26;96386.97;;;4.89;67.80
24892;BME280;12954;50.688;10.908;2023-04-09T02:16:56;96386.34;;;4.87;67.45
24892;BME280;12954;50.688;10.908;2023-04-09T02:19:24;96390.09;;;4.86;67.59
24892;BME280;12954;50.688;10.908;2023-04-09T02:21:53;96386.16;;;4.88;67.85
24892;BME280;12954;50.688;10.908;2023-04-09T02:24:21;96381.75;;;4.94;67.35
24892;BME280;12954;50.688;10.908;2023-04-09T02:26:49;96383.41;;;4.95;67.67
24892;BME280;12954;50.688;10.908;2023-04-09T02:29:18;96387.69;;;4.96;67.34
24892;BME280;12954;50.688;10.908;2023-04-09T02:31:47;96385.00;;;4.96;67.28
24892;BME280;12954;50.688;10.908;2023-04-09T02:34:19;96322.16;;;4.57;67.14
24892;BME280;12954;50.688;10.908;2023-04-09T02:36:47;96389.34;;;4.97;67.10
24892;BME280;12954;50.688;10.908;2023-04-09T02:39:16;96384.56;;;4.99;67.03
24892;BME280;12954;50.688;10.908;2023-04-09T02:41:44;96392.00;;;4.97;66.86
24892;BME280;12954;50.688;10.908;2023-04-09T02:44:12;96382.13;;;4.97;67.09
24892;BME280;12954;50.688;10.908;2023-04-09T02:46:42;96386.41;;;4.98;66.84
24892;BME280;12954;50.688;10.908;2023-04-09T02:49:12;96353.41;;;4.75;66.83
24892;BME280;12954;50.688;10.908;2023-04-09T02:51:41;96392.44;;;4.94;66.87
24892;BME280;12954;50.688;10.908;2023-04-09T02:54:09;96384.88;;;4.91;67.03
24892;BME280;12954;50.688;10.908;2023-04-09T02:56:37;96382.66;;;4.88;67.04
24892;BME280;12954;50.688;10.908;2023-04-09T02:59:06;96352.69;;;4.68;66.84
24892;BME280;12954;50.688;10.908;2023-04-09T03:01:34;96363.28;;;4.56;67.15
24892;BME280;12954;50.688;10.908;2023-04-09T03:04:04;96359.66;;;4.51;67.25
24892;BME280;12954;50.688;10.908;2023-04-09T03:06:34;96385.78;;;4.67;67.46
24892;BME280;12954;50.688;10.908;2023-04-09T03:09:02;96380.22;;;4.68;67.57
24892;BME280;12954;50.688;10.908;2023-04-09T03:11:31;96380.81;;;4.70;67.74
24892;BME280;12954;50.688;10.908;2023-04-09T03:13:59;96381.63;;;4.71;67.75
24892;BME280;12954;50.688;10.908;2023-04-09T03:16:27;96377.31;;;4.70;67.76
24892;BME280;12954;50.688;10.908;2023-04-09T03:18:55;96377.31;;;4.70;67.30
24892;BME280;12954;50.688;10.908;2023-04-09T03:21:24;96374.25;;;4.66;67.64
24892;BME280;12954;50.688;10.908;2023-04-09T03:23:54;96380.88;;;4.64;67.83
24892;BME280;12954;50.688;10.908;2023-04-09T03:26:23;96376.16;;;4.66;67.67
24892;BME280;12954;50.688;10.908;2023-04-09T03:28:51;96380.88;;;4.64;67.33
24892;BME280;12954;50.688;10.908;2023-04-09T03:31:20;96345.03;;;4.35;67.19
24892;BME280;12954;50.688;10.908;2023-04-09T03:33:49;96379.72;;;4.60;67.42
24892;BME280;12954;50.688;10.908;2023-04-09T03:36:17;96374.81;;;4.57;67.55
24892;BME280;12954;50.688;10.908;2023-04-09T03:38:46;96375.59;;;4.57;67.52
24892;BME280;12954;50.688;10.908;2023-04-09T03:41:16;96381.31;;;4.61;67.15
24892;BME280;12954;50.688;10.908;2023-04-09T03:43:44;96359.50;;;4.45;67.53
24892;BME280;12954;50.688;10.908;2023-04-09T03:46:13;96376.59;;;4.63;67.72
24892;BME280;12954;50.688;10.908;2023-04-09T03:48:42;96336.81;;;4.36;67.63
24892;BME280;12954;50.688;10.908;2023-04-09T03:51:12;96286.03;;;4.18;67.06
24892;BME280;12954;50.688;10.908;2023-04-09T03:53:40;96333.84;;;4.44;67.01
24892;BME280;12954;50.688;10.908;2023-04-09T03:56:09;96375.47;;;4.70;67.09
24892;BME280;12954;50.688;10.908;2023-04-09T03:58:39;96350.13;;;4.55;66.90
24892;BME280;12954;50.688;10.908;2023-04-09T04:01:07;96358.66;;;4.63;67.02
24892;BME280;12954;50.688;10.908;2023-04-09T04:03:36;96376.28;;;4.71;66.41
24892;BME280;12954;50.688;10.908;2023-04-09T04:06:05;96368.13;;;4.66;66.67
24892;BME280;12954;50.688;10.908;2023-04-09T04:08:33;96378.44;;;4.62;66.47
24892;BME280;12954;50.688;10.908;2023-04-09T04:11:02;96371.50;;;4.55;66.71
24892;BME280;12954;50.688;10.908;2023-04-09T04:13:31;96373.59;;;4.53;66.60
24892;BME280;12954;50.688;10.908;2023-04-09T04:16:01;96377.91;;;4.54;66.95
24892;BME280;12954;50.688;10.908;2023-04-09T04:18:33;96370.03;;;4.59;66.38
24892;BME280;12954;50.688;10.908;2023-04-09T04:21:02;96379.53;;;4.55;66.12
24892;BME280;12954;50.688;10.908;2023-04-09T04:23:30;96384.34;;;4.46;66.45
24892;BME280;12954;50.688;10.908;2023-04-09T04:25:58;96387.47;;;4.43;66.14
24892;BME280;12954;50.688;10.908;2023-04-09T04:28:27;96390.97;;;4.43;66.33
24892;BME280;12954;50.688;10.908;2023-04-09T04:30:55;96389.78;;;4.39;66.18
24892;BME280;12954;50.688;10.908;2023-04-09T04:33:25;96403.78;;;4.35;66.43
24892;BME280;12954;50.688;10.908;2023-04-09T04:36:03;96336.72;;;4.00;66.43
24892;BME280;12954;50.688;10.908;2023-04-09T04:38:32;96346.53;;;4.06;66.37
24892;BME280;12954;50.688;10.908;2023-04-09T04:41:01;96388.19;;;4.32;66.56
24892;BME280;12954;50.688;10.908;2023-04-09T04:43:29;96401.66;;;4.43;66.68
24892;BME280;12954;50.688;10.908;2023-04-09T04:45:58;96401.59;;;4.50;66.68
24892;BME280;12954;50.688;10.908;2023-04-09T04:48:28;96395.81;;;4.53;66.31
24892;BME280;12954;50.688;10.908;2023-04-09T04:50:59;96402.41;;;4.51;66.40
24892;BME280;12954;50.688;10.908;2023-04-09T04:53:28;96357.88;;;4.20;66.46
24892;BME280;12954;50.688;10.908;2023-04-09T04:55:56;96348.47;;;4.17;66.30
24892;BME280;12954;50.688;10.908;2023-04-09T04:58:24;96402.97;;;4.34;66.43
24892;BME280;12954;50.688;10.908;2023-04-09T05:00:53;96414.28;;;4.55;66.44
24892;BME280;12954;50.688;10.908;2023-04-09T05:03:21;96415.91;;;4.56;66.60
24892;BME280;12954;50.688;10.908;2023-04-09T05:05:54;96409.75;;;4.55;66.47
24892;BME280;12954;50.688;10.908;2023-04-09T05:08:23;96412.22;;;4.57;66.82
24892;BME280;12954;50.688;10.908;2023-04-09T05:10:51;96419.34;;;4.63;66.14
24892;BME280;12954;50.688;10.908;2023-04-09T05:13:22;96392.72;;;4.31;66.53
24892;BME280;12954;50.688;10.908;2023-04-09T05:15:50;96420.06;;;4.52;66.30
24892;BME280;12954;50.688;10.908;2023-04-09T05:18:18;96418.44;;;4.51;66.68
24892;BME280;12954;50.688;10.908;2023-04-09T05:20:47;96398.72;;;4.27;66.47
24892;BME280;12954;50.688;10.908;2023-04-09T05:23:17;96422.13;;;4.50;66.18
24892;BME280;12954;50.688;10.908;2023-04-09T05:25:47;96429.13;;;4.51;66.51
24892;BME280;12954;50.688;10.908;2023-04-09T05:28:16;96426.00;;;4.54;66.21
24892;BME280;12954;50.688;10.908;2023-04-09T05:30:45;96431.13;;;4.55;66.29
24892;BME280;12954;50.688;10.908;2023-04-09T05:33:14;96427.41;;;4.56;66.13
24892;BME280;12954;50.688;10.908;2023-04-09T05:35:42;96420.06;;;4.52;65.91
24892;BME280;12954;50.688;10.908;2023-04-09T05:38:10;96430.25;;;4.61;65.66
24892;BME280;12954;50.688;10.908;2023-04-09T05:40:41;96425.72;;;4.62;65.89
24892;BME280;12954;50.688;10.908;2023-04-09T05:43:10;96433.06;;;4.66;65.67
24892;BME280;12954;50.688;10.908;2023-04-09T05:45:39;96428.97;;;4.64;65.47
24892;BME280;12954;50.688;10.908;2023-04-09T05:48:07;96435.97;;;4.65;65.51
24892;BME280;12954;50.688;10.908;2023-04-09T05:50:36;96209.53;;;3.26;65.47
24892;BME280;12954;50.688;10.908;2023-04-09T05:53:19;96437.28;;;4.56;65.30
24892;BME280;12954;50.688;10.908;2023-04-09T05:55:49;96437.59;;;4.66;65.64
24892;BME280;12954;50.688;10.908;2023-04-09T05:58:18;96434.06;;;4.72;65.55
24892;BME280;12954;50.688;10.908;2023-04-09T06:00:46;96440.13;;;4.79;65.34
24892;BME280;12954;50.688;10.908;2023-04-09T06:03:17;96431.47;;;4.83;65.42
24892;BME280;12954;50.688;10.908;2023-04-09T06:05:46;96438.78;;;4.88;65.14
24892;BME280;12954;50.688;10.908;2023-04-09T06:08:14;96356.81;;;4.45;64.73
24892;BME280;12954;50.688;10.908;2023-04-09T06:10:43;96437.22;;;4.98;64.62
24892;BME280;12954;50.688;10.908;2023-04-09T06:13:12;96447.91;;;4.98;64.70
24892;BME280;12954;50.688;10.908;2023-04-09T06:15:41;96438.22;;;5.04;64.66
24892;BME280;12954;50.688;10.908;2023-04-09T06:18:09;96449.50;;;5.06;64.51
24892;BME280;12954;50.688;10.908;2023-04-09T06:20:38;96441.59;;;5.11;64.50
24892;BME280;12954;50.688;10.908;2023-04-09T06:23:07;96444.41;;;5.16;64.49
24892;BME280;12954;50.688;10.908;2023-04-09T06:25:35;96443.75;;;5.21;64.20
24892;BME280;12954;50.688;10.908;2023-04-09T06:28:04;96447.25;;;5.21;64.07
24892;BME280;12954;50.688;10.908;2023-04-09T06:30:34;96445.75;;;5.25;64.20
24892;BME280;12954;50.688;10.908;2023-04-09T06:33:02;96452.41;;;5.34;63.73
24892;BME280;12954;50.688;10.908;2023-04-09T06:35:31;96451.97;;;5.37;63.22
24892;BME280;12954;50.688;10.908;2023-04-09T06:38:00;96448.41;;;5.25;63.30
24892;BME280;12954;50.688;10.908;2023-04-09T06:40:29;96445.75;;;5.25;63.38
24892;BME280;12954;50.688;10.908;2023-04-09T06:42:57;96405.59;;;4.95;63.42
24892;BME280;12954;50.688;10.908;2023-04-09T06:45:26;96447.25;;;5.21;63.54
24892;BME280;12954;50.688;10.908;2023-04-09T06:47:56;96403.22;;;4.87;62.96
24892;BME280;12954;50.688;10.908;2023-04-09T06:50:25;96450.97;;;5.20;62.78
24892;BME280;12954;50.688;10.908;2023-04-09T06:52:53;96446.81;;;5.06;62.87
24892;BME280;12954;50.688;10.908;2023-04-09T06:55:22;96426.91;;;5.02;62.65
24892;BME280;12954;50.688;10.908;2023-04-09T06:57:50;96450.13;;;5.20;62.77
24892;BME280;12954;50.688;10.908;2023-04-09T07:00:18;96456.31;;;5.20;62.57
24892;BME280;12954;50.688;10.908;2023-04-09T07:02:49;96453.41;;;5.22;62.37
24892;BME280;12954;50.688;10.908;2023-04-09T07:05:20;96454.22;;;5.22;62.24
24892;BME280;12954;50.688;10.908;2023-04-09T07:07:48;96455.28;;;5.21;62.33
24892;BME280;12954;50.688;10.908;2023-04-09T07:10:17;96437.16;;;5.05;62.22
24892;BME280;12954;50.688;10.908;2023-04-09T07:12:45;96461.66;;;5.20;62.48
24892;BME280;12954;50.688;10.908;2023-04-09T07:15:14;96449.31;;;5.19;62.34
24892;BME280;12954;50.688;10.908;2023-04-09T07:17:42;96466.13;;;5.26;61.98
24892;BME280;12954;50.688;10.908;2023-04-09T07:20:11;96466.94;;;5.27;61.94
24892;BME280;12954;50.688;10.908;2023-04-09T07:22:41;96469.75;;;5.32;61.85
24892;BME280;12954;50.688;10.908;2023-04-09T07:25:09;96467.44;;;5.35;61.73
24892;BME280;12954;50.688;10.908;2023-04-09T07:27:38;96464.31;;;5.38;61.62
24892;BME280;12954;50.688;10.908;2023-04-09T07:30:07;96460.28;;;5.47;60.91
24892;BME280;12954;50.688;10.908;2023-04-09T07:32:36;96463.59;;;5.61;60.55
24892;BME280;12954;50.688;10.908;2023-04-09T07:35:06;96478.00;;;5.60;60.67
24892;BME280;12954;50.688;10.908;2023-04-09T07:37:35;96472.81;;;5.65;60.40
24892;BME280;12954;50.688;10.908;2023-04-09T07:40:06;96453.34;;;5.58;59.95
24892;BME280;12954;50.688;10.908;2023-04-09T07:42:36;96472.41;;;5.80;59.95
24892;BME280;12954;50.688;10.908;2023-04-09T07:45:06;96440.53;;;5.60;59.84
24892;BME280;12954;50.688;10.908;2023-04-09T07:47:34;96474.75;;;5.88;59.48
24892;BME280;12954;50.688;10.908;2023-04-09T07:50:03;96475.22;;;5.85;59.30
24892;BME280;12954;50.688;10.908;2023-04-09T07:52:32;96476.16;;;5.90;59.12
24892;BME280;12954;50.688;10.908;2023-04-09T07:55:00;96480.13;;;5.88;58.95
24892;BME280;12954;50.688;10.908;2023-04-09T07:57:31;96481.75;;;5.89;58.95
24892;BME280;12954;50.688;10.908;2023-04-09T07:59:59;96475.78;;;5.87;59.01
24892;BME280;12954;50.688;10.908;2023-04-09T08:02:29;96374.91;;;5.28;58.37
24892;BME280;12954;50.688;10.908;2023-04-09T08:04:58;96484.91;;;5.97;58.33
24892;BME280;12954;50.688;10.908;2023-04-09T08:07:26;96475.81;;;5.98;57.88
24892;BME280;12954;50.688;10.908;2023-04-09T08:09:55;96477.81;;;6.03;57.44
24892;BME280;12954;50.688;10.908;2023-04-09T08:12:23;96480.47;;;5.91;57.79
24892;BME280;12954;50.688;10.908;2023-04-09T08:14:53;96448.63;;;5.72;58.21
24892;BME280;12954;50.688;10.908;2023-04-09T08:17:22;96499.06;;;5.86;58.47
24892;BME280;12954;50.688;10.908;2023-04-09T08:19:50;96484.56;;;5.94;58.43
24892;BME280;12954;50.688;10.908;2023-04-09T08:22:19;96482.00;;;5.99;58.00
24892;BME280;12954;50.688;10.908;2023-04-09T08:24:50;96487.81;;;5.96;58.15
24892;BME280;12954;50.688;10.908;2023-04-09T08:27:19;96489.47;;;5.97;58.16
24892;BME280;12954;50.688;10.908;2023-04-09T08:29:47;96482.63;;;6.01;57.98
24892;BME280;12954;50.688;10.908;2023-04-09T08:32:17;96477.75;;;6.09;57.62
24892;BME280;12954;50.688;10.908;2023-04-09T08:34:45;96483.00;;;6.16;57.45
24892;BME280;12954;50.688;10.908;2023-04-09T08:37:14;96483.00;;;6.16;57.33
24892;BME280;12954;50.688;10.908;2023-04-09T08:39:42;96478.81;;;6.20;57.50
24892;BME280;12954;50.688;10.908;2023-04-09T08:42:12;96476.06;;;6.27;57.16
24892;BME280;12954;50.688;10.908;2023-04-09T08:44:42;96429.72;;;5.96;57.13
24892;BME280;12954;50.688;10.908;2023-04-09T08:47:11;96471.63;;;6.32;56.73
24892;BME280;12954;50.688;10.908;2023-04-09T08:49:41;96482.47;;;6.37;56.68
24892;BME280;12954;50.688;10.908;2023-04-09T08:52:09;96471.41;;;6.45;56.30
24892;BME280;12954;50.688;10.908;2023-04-09T08:54:38;96449.47;;;6.25;56.29
24892;BME280;12954;50.688;10.908;2023-04-09T08:57:06;96478.97;;;6.48;56.32
24892;BME280;12954;50.688;10.908;2023-04-09T08:59:35;96470.47;;;6.51;56.08
24892;BME280;12954;50.688;10.908;2023-04-09T09:02:07;96477.59;;;6.69;55.11
24892;BME280;12954;50.688;10.908;2023-04-09T09:04:44;96462.78;;;6.66;55.28
24892;BME280;12954;50.688;10.908;2023-04-09T09:07:14;96423.16;;;6.34;54.92
24892;BME280;12954;50.688;10.908;2023-04-09T09:09:56;96450.31;;;6.60;55.01
24892;BME280;12954;50.688;10.908;2023-04-09T09:12:30;96467.78;;;6.75;54.98
24892;BME280;12954;50.688;10.908;2023-04-09T09:15:00;96468.97;;;6.79;54.94
24892;BME280;12954;50.688;10.908;2023-04-09T09:17:28;96442.97;;;6.67;54.44
24892;BME280;12954;50.688;10.908;2023-04-09T09:19:59;96467.56;;;6.88;54.39
24892;BME280;12954;50.688;10.908;2023-04-09T09:22:48;96471.16;;;6.93;53.99
24892;BME280;12954;50.688;10.908;2023-04-09T09:25:21;96476.16;;;7.01;53.97
24892;BME280;12954;50.688;10.908;2023-04-09T09:27:52;96276.25;;;5.84;53.56
24892;BME280;12954;50.688;10.908;2023-04-09T09:30:23;96475.47;;;7.17;53.79
24892;BME280;12954;50.688;10.908;2023-04-09T09:32:53;96468.31;;;7.23;53.03
24892;BME280;12954;50.688;10.908;2023-04-09T09:35:25;96470.88;;;7.30;52.90
24892;BME280;12954;50.688;10.908;2023-04-09T09:38:00;96417.75;;;7.03;52.72
24892;BME280;12954;50.688;10.908;2023-04-09T09:40:30;96466.19;;;7.37;52.57
24892;BME280;12954;50.688;10.908;2023-04-09T09:42:58;96465.47;;;7.41;52.64
24892;BME280;12954;50.688;10.908;2023-04-09T09:45:26;96423.41;;;7.30;51.39
24892;BME280;12954;50.688;10.908;2023-04-09T09:47:56;96457.47;;;7.58;51.57
24892;BME280;12954;50.688;10.908;2023-04-09T09:50:29;96461.78;;;7.70;51.42
24892;BME280;12954;50.688;10.908;2023-04-09T09:53:01;96470.13;;;7.86;51.49
24892;BME280;12954;50.688;10.908;2023-04-09T09:55:33;96446.25;;;7.89;51.39
24892;BME280;12954;50.688;10.908;2023-04-09T09:58:08;96460.03;;;8.21;51.19
24892;BME280;12954;50.688;10.908;2023-04-09T10:00:39;96463.41;;;8.33;50.79
24892;BME280;12954;50.688;10.908;2023-04-09T10:03:13;96458.22;;;8.43;50.60
24892;BME280;12954;50.688;10.908;2023-04-09T10:05:43;96405.34;;;8.15;50.42
24892;BME280;12954;50.688;10.908;2023-04-09T10:08:12;96388.72;;;8.18;50.45
24892;BME280;12954;50.688;10.908;2023-04-09T10:10:41;96457.78;;;8.84;49.45
24892;BME280;12954;50.688;10.908;2023-04-09T10:13:14;96452.47;;;8.89;48.25
24892;BME280;12954;50.688;10.908;2023-04-09T10:15:44;96420.88;;;8.63;48.55
24892;BME280;12954;50.688;10.908;2023-04-09T10:18:14;96447.50;;;8.81;49.04
24892;BME280;12954;50.688;10.908;2023-04-09T10:20:50;96449.44;;;8.86;48.60
24892;BME280;12954;50.688;10.908;2023-04-09T10:23:31;96451.50;;;8.79;48.65
24892;BME280;12954;50.688;10.908;2023-04-09T10:26:01;96461.53;;;8.83;48.59
24892;BME280;12954;50.688;10.908;2023-04-09T10:28:30;96443.69;;;8.77;48.53
24892;BME280;12954;50.688;10.908;2023-04-09T10:30:59;96452.34;;;8.79;47.51
24892;BME280;12954;50.688;10.908;2023-04-09T10:33:28;96415.84;;;8.50;47.60
24892;BME280;12954;50.688;10.908;2023-04-09T10:36:02;96448.44;;;8.54;47.91
24892;BME280;12954;50.688;10.908;2023-04-09T10:38:35;96435.38;;;8.62;48.22
24892;BME280;12954;50.688;10.908;2023-04-09T10:41:13;96435.69;;;8.82;47.82
24892;BME280;12954;50.688;10.908;2023-04-09T10:43:42;96415.00;;;8.66;48.37
24892;BME280;12954;50.688;10.908;2023-04-09T10:46:28;96426.16;;;9.13;47.54
24892;BME280;12954;50.688;10.908;2023-04-09T10:49:15;96443.94;;;9.36;46.12
24892;BME280;12954;50.688;10.908;2023-04-09T10:51:52;96424.19;;;9.25;46.63
24892;BME280;12954;50.688;10.908;2023-04-09T10:54:44;96425.69;;;9.38;45.84
24892;BME280;12954;50.688;10.908;2023-04-09T10:57:18;96432.19;;;9.42;46.55
24892;BME280;12954;50.688;10.908;2023-04-09T10:59:48;96435.75;;;9.47;46.90
24892;BME280;12954;50.688;10.908;2023-04-09T11:03:04;96431.81;;;9.55;46.62
24892;BME280;12954;50.688;10.908;2023-04-09T11:05:35;96431.03;;;9.60;47.51
24892;BME280;12954;50.688;10.908;2023-04-09T11:08:08;96431.47;;;9.73;46.54
24892;BME280;12954;50.688;10.908;2023-04-09T11:10:38;96432.53;;;9.72;46.49
24892;BME280;12954;50.688;10.908;2023-04-09T11:13:10;96384.56;;;9.47;46.20
24892;BME280;12954;50.688;10.908;2023-04-09T11:15:39;96392.03;;;9.40;46.48
24892;BME280;12954;50.688;10.908;2023-04-09T11:18:07;96429.78;;;9.67;46.63
24892;BME280;12954;50.688;10.908;2023-04-09T11:20:38;96422.97;;;9.86;45.30
24892;BME280;12954;50.688;10.908;2023-04-09T11:23:09;96399.34;;;9.67;44.67
24892;BME280;12954;50.688;10.908;2023-04-09T11:25:39;96358.88;;;9.35;44.39
24892;BME280;12954;50.688;10.908;2023-04-09T11:28:07;96417.00;;;9.58;45.16
24892;BME280;12954;50.688;10.908;2023-04-09T11:30:35;96376.94;;;9.39;45.72
24892;BME280;12954;50.688;10.908;2023-04-09T11:33:05;96425.31;;;9.78;45.77
24892;BME280;12954;50.688;10.908;2023-04-09T11:35:35;96418.16;;;9.88;45.58
24892;BME280;12954;50.688;10.908;2023-04-09T11:38:08;96400.44;;;9.97;45.37
24892;BME280;12954;50.688;10.908;2023-04-09T11:40:40;96416.03;;;10.22;45.14
24892;BME280;12954;50.688;10.908;2023-04-09T11:43:14;96421.44;;;10.27;45.27
24892;BME280;12954;50.688;10.908;2023-04-09T11:45:44;96426.16;;;10.37;45.20
24892;BME280;12954;50.688;10.908;2023-04-09T11:48:15;96422.16;;;10.44;45.03
24892;BME280;12954;50.688;10.908;2023-04-09T11:50:44;96417.06;;;10.48;44.88
24892;BME280;12954;50.688;10.908;2023-04-09T11:53:18;96398.16;;;10.43;44.56
24892;BME280;12954;50.688;10.908;2023-04-09T11:55:49;96388.50;;;10.52;44.02
24892;BME280;12954;50.688;10.908;2023-04-09T11:58:21;96413.66;;;10.63;44.23
24892;BME280;12954;50.688;10.908;2023-04-09T12:00:52;96375.84;;;10.52;42.03
24892;BME280;12954;50.688;10.908;2023-04-09T12:03:27;96411.59;;;10.75;42.44
24892;BME280;12954;50.688;10.908;2023-04-09T12:05:59;96408.59;;;10.71;43.07
24892;BME280;12954;50.688;10.908;2023-04-09T12:08:29;96408.69;;;10.86;43.25
24892;BME280;12954;50.688;10.908;2023-04-09T12:11:07;96392.47;;;10.81;42.91
24892;BME280;12954;50.688;10.908;2023-04-09T12:13:36;96432.31;;;11.11;42.93
24892;BME280;12954;50.688;10.908;2023-04-09T12:16:09;96412.97;;;11.29;42.68
24892;BME280;12954;50.688;10.908;2023-04-09T12:18:38;96409.28;;;11.50;41.46
24892;BME280;12954;50.688;10.908;2023-04-09T12:21:07;96406.31;;;11.52;41.60
24892;BME280;12954;50.688;10.908;2023-04-09T12:23:36;96397.63;;;11.45;41.24
24892;BME280;12954;50.688;10.908;2023-04-09T12:26:05;96415.16;;;11.42;41.41
24892;BME280;12954;50.688;10.908;2023-04-09T12:28:33;96395.69;;;11.35;41.66
24892;BME280;12954;50.688;10.908;2023-04-09T12:31:02;96347.81;;;11.15;40.88
24892;BME280;12954;50.688;10.908;2023-04-09T12:33:30;96399.88;;;11.68;40.64
24892;BME280;12954;50.688;10.908;2023-04-09T12:35:59;96407.47;;;11.76;40.83
24892;BME280;12954;50.688;10.908;2023-04-09T12:38:28;96403.72;;;11.97;40.25
24892;BME280;12954;50.688;10.908;2023-04-09T12:40:58;96392.91;;;12.12;39.16
24892;BME280;12954;50.688;10.908;2023-04-09T12:43:27;96379.09;;;11.89;40.05
24892;BME280;12954;50.688;10.908;2023-04-09T12:45:55;96394.81;;;12.02;40.22
24892;BME280;12954;50.688;10.908;2023-04-09T12:48:24;96396.41;;;12.03;40.18
24892;BME280;12954;50.688;10.908;2023-04-09T12:50:52;96394.25;;;12.00;40.26
24892;BME280;12954;50.688;10.908;2023-04-09T12:53:21;96394.53;;;11.98;40.18
24892;BME280;12954;50.688;10.908;2023-04-09T12:55:49;96396.69;;;11.96;39.95
24892;BME280;12954;50.688;10.908;2023-04-09T12:58:19;96391.25;;;11.91;39.88
24892;BME280;12954;50.688;10.908;2023-04-09T13:00:47;96389.66;;;11.95;39.86
24892;BME280;12954;50.688;10.908;2023-04-09T13:03:16;96388.06;;;12.04;39.67
24892;BME280;12954;50.688;10.908;2023-04-09T13:05:44;96374.53;;;11.99;39.71
24892;BME280;12954;50.688;10.908;2023-04-09T13:08:13;96389.16;;;12.08;39.45
24892;BME280;12954;50.688;10.908;2023-04-09T13:10:42;96386.44;;;12.13;38.94
24892;BME280;12954;50.688;10.908;2023-04-09T13:13:10;96376.97;;;12.11;38.53
24892;BME280;12954;50.688;10.908;2023-04-09T13:15:41;96376.16;;;12.05;38.28